^^
TXWeather Station Historical Data
Daily Summary for January 28, 2022 Units:  English    Metric   Both
Daily Weekly Monthly Yearly Custom
  High: Low: Average:
Temperature: 58.0 °F 39.0 °F 50.2 °F
Dew Point: 38.0 °F 28.0 °F 32.6 °F
Humidity: 68% 34% 52%
Wind Speed: 21mph 0mph 9.6mph
Wind Gust: 23mph - -
Wind- - WSW
Pressure: 30.5 in 30.3 in -
Precipitation: 0.000 in    
Historical Graphs
 
 
Tabular Data for January 28, 2022
Time Temperature Dew Point Pressure Wind Wind Speed Wind Gust Humidity Rainfall Rate (Hourly) solar
00:04 52.0 °F 38.0 °F 30.3 in NNE 8 mph 9 mph 60% 0.000 in 0.00 W/m2
00:09 52.0 °F 38.0 °F 30.3 in NNE 9 mph 9 mph 60% 0.000 in 0.00 W/m2
00:14 52.0 °F 38.0 °F 30.3 in NNE 11 mph 11 mph 60% 0.000 in 0.00 W/m2
00:19 52.0 °F 38.0 °F 30.3 in NNE 11 mph 11 mph 60% 0.000 in 0.00 W/m2
00:24 51.0 °F 38.0 °F 30.3 in NNE 7 mph 8 mph 60% 0.000 in 0.00 W/m2
00:29 51.0 °F 38.0 °F 30.3 in NNE 7 mph 7 mph 60% 0.000 in 0.00 W/m2
00:34 51.0 °F 38.0 °F 30.3 in NNE 8 mph 9 mph 60% 0.000 in 0.00 W/m2
00:39 51.0 °F 38.0 °F 30.3 in NNE 6 mph 8 mph 60% 0.000 in 0.00 W/m2
00:44 51.0 °F 38.0 °F 30.3 in NNE 8 mph 8 mph 60% 0.000 in 0.00 W/m2
00:49 51.0 °F 38.0 °F 30.3 in NNE 5 mph 8 mph 60% 0.000 in 0.00 W/m2
00:54 51.0 °F 38.0 °F 30.3 in North 8 mph 9 mph 60% 0.000 in 0.00 W/m2
00:59 51.0 °F 38.0 °F 30.3 in NNE 7 mph 7 mph 61% 0.000 in 0.00 W/m2
01:04 51.0 °F 38.0 °F 30.3 in NNE 8 mph 11 mph 61% 0.000 in 0.00 W/m2
01:09 51.0 °F 38.0 °F 30.3 in NNE 6 mph 11 mph 61% 0.000 in 0.00 W/m2
01:14 51.0 °F 38.0 °F 30.3 in North 5 mph 6 mph 61% 0.000 in 0.00 W/m2
01:19 51.0 °F 38.0 °F 30.3 in NNE 8 mph 8 mph 61% 0.000 in 0.00 W/m2
01:24 50.0 °F 37.0 °F 30.3 in NNE 6 mph 7 mph 61% 0.000 in 0.00 W/m2
01:29 50.0 °F 37.0 °F 30.3 in NNE 7 mph 7 mph 61% 0.000 in 0.00 W/m2
01:34 50.0 °F 38.0 °F 30.3 in NNE 5 mph 6 mph 62% 0.000 in 0.00 W/m2
01:39 50.0 °F 38.0 °F 30.3 in NNE 5 mph 5 mph 62% 0.000 in 0.00 W/m2
01:44 50.0 °F 38.0 °F 30.3 in NNE 7 mph 7 mph 62% 0.000 in 0.00 W/m2
01:49 50.0 °F 38.0 °F 30.3 in NNE 9 mph 10 mph 62% 0.000 in 0.00 W/m2
01:54 50.0 °F 38.0 °F 30.3 in NNE 9 mph 11 mph 62% 0.000 in 0.00 W/m2
01:59 50.0 °F 37.0 °F 30.3 in NNE 11 mph 11 mph 61% 0.000 in 0.00 W/m2
02:04 50.0 °F 37.0 °F 30.3 in North 9 mph 11 mph 61% 0.000 in 0.00 W/m2
02:09 50.0 °F 37.0 °F 30.3 in NNE 6 mph 9 mph 61% 0.000 in 0.00 W/m2
02:14 50.0 °F 37.0 °F 30.3 in North 6 mph 7 mph 61% 0.000 in 0.00 W/m2
02:19 50.0 °F 36.0 °F 30.3 in NNE 9 mph 9 mph 60% 0.000 in 0.00 W/m2
02:24 50.0 °F 36.0 °F 30.3 in North 9 mph 9 mph 60% 0.000 in 0.00 W/m2
02:29 50.0 °F 36.0 °F 30.4 in North 4 mph 4 mph 60% 0.000 in 0.00 W/m2
02:34 50.0 °F 36.0 °F 30.4 in North 4 mph 4 mph 60% 0.000 in 0.00 W/m2
02:39 50.0 °F 37.0 °F 30.4 in North 3 mph 4 mph 61% 0.000 in 0.00 W/m2
02:44 50.0 °F 37.0 °F 30.4 in NNE 4 mph 4 mph 61% 0.000 in 0.00 W/m2
02:49 50.0 °F 37.0 °F 30.4 in North 4 mph 4 mph 61% 0.000 in 0.00 W/m2
02:54 50.0 °F 37.0 °F 30.4 in NNW 8 mph 9 mph 61% 0.000 in 0.00 W/m2
02:59 50.0 °F 37.0 °F 30.4 in North 5 mph 9 mph 61% 0.000 in 0.00 W/m2
03:04 49.0 °F 36.0 °F 30.4 in North 8 mph 8 mph 61% 0.000 in 0.00 W/m2
03:09 49.0 °F 36.0 °F 30.4 in North 10 mph 10 mph 61% 0.000 in 0.00 W/m2
03:14 49.0 °F 37.0 °F 30.4 in North 9 mph 9 mph 62% 0.000 in 0.00 W/m2
03:19 49.0 °F 37.0 °F 30.4 in North 9 mph 10 mph 62% 0.000 in 0.00 W/m2
03:24 49.0 °F 37.0 °F 30.4 in NNW 6 mph 8 mph 62% 0.000 in 0.00 W/m2
03:29 49.0 °F 37.0 °F 30.4 in NNW 9 mph 9 mph 62% 0.000 in 0.00 W/m2
03:34 49.0 °F 36.0 °F 30.4 in NNW 10 mph 10 mph 62% 0.000 in 0.00 W/m2
03:39 49.0 °F 36.0 °F 30.4 in NNW 10 mph 10 mph 62% 0.000 in 0.00 W/m2
03:44 49.0 °F 36.0 °F 30.4 in North 10 mph 10 mph 62% 0.000 in 0.00 W/m2
03:49 49.0 °F 36.0 °F 30.4 in North 11 mph 11 mph 62% 0.000 in 0.00 W/m2
03:54 48.0 °F 36.0 °F 30.4 in North 11 mph 11 mph 62% 0.000 in 0.00 W/m2
03:59 48.0 °F 35.0 °F 30.4 in NNW 11 mph 11 mph 61% 0.000 in 0.00 W/m2
04:04 48.0 °F 35.0 °F 30.4 in North 9 mph 9 mph 61% 0.000 in 0.00 W/m2
04:09 48.0 °F 35.0 °F 30.4 in North 10 mph 11 mph 61% 0.000 in 0.00 W/m2
04:14 48.0 °F 35.0 °F 30.4 in North 9 mph 11 mph 61% 0.000 in 0.00 W/m2
04:19 48.0 °F 35.0 °F 30.4 in North 11 mph 11 mph 60% 0.000 in 0.00 W/m2
04:24 48.0 °F 35.0 °F 30.4 in North 10 mph 11 mph 60% 0.000 in 0.00 W/m2
04:29 48.0 °F 35.0 °F 30.4 in North 11 mph 11 mph 60% 0.000 in 0.00 W/m2
04:34 48.0 °F 35.0 °F 30.4 in North 10 mph 11 mph 61% 0.000 in 0.00 W/m2
04:39 48.0 °F 35.0 °F 30.4 in North 9 mph 10 mph 61% 0.000 in 0.00 W/m2
04:44 48.0 °F 35.0 °F 30.4 in North 10 mph 10 mph 61% 0.000 in 0.00 W/m2
04:49 48.0 °F 35.0 °F 30.4 in North 10 mph 10 mph 61% 0.000 in 0.00 W/m2
04:54 48.0 °F 35.0 °F 30.4 in North 12 mph 16 mph 61% 0.000 in 0.00 W/m2
04:59 48.0 °F 35.0 °F 30.4 in North 13 mph 15 mph 61% 0.000 in 0.00 W/m2
05:04 48.0 °F 35.0 °F 30.4 in North 13 mph 13 mph 61% 0.000 in 0.00 W/m2
05:09 48.0 °F 34.0 °F 30.4 in North 10 mph 11 mph 60% 0.000 in 0.00 W/m2
05:14 48.0 °F 34.0 °F 30.4 in NNW 12 mph 12 mph 59% 0.000 in 0.00 W/m2
05:19 48.0 °F 34.0 °F 30.4 in North 9 mph 11 mph 59% 0.000 in 0.00 W/m2
05:24 48.0 °F 34.0 °F 30.4 in NNW 11 mph 12 mph 59% 0.000 in 0.00 W/m2
05:29 48.0 °F 33.0 °F 30.4 in North 8 mph 12 mph 58% 0.000 in 0.00 W/m2
05:34 48.0 °F 33.0 °F 30.4 in NNW 10 mph 10 mph 58% 0.000 in 0.00 W/m2
05:39 47.0 °F 33.0 °F 30.4 in North 10 mph 10 mph 58% 0.000 in 0.00 W/m2
05:44 47.0 °F 33.0 °F 30.4 in NNW 9 mph 10 mph 58% 0.000 in 0.00 W/m2
05:49 47.0 °F 33.0 °F 30.4 in NNW 5 mph 9 mph 58% 0.000 in 0.00 W/m2
05:54 47.0 °F 33.0 °F 30.4 in NNW 5 mph 5 mph 58% 0.000 in 0.00 W/m2
05:59 47.0 °F 33.0 °F 30.4 in NNW 8 mph 8 mph 57% 0.000 in 0.00 W/m2
06:04 47.0 °F 33.0 °F 30.4 in North 8 mph 8 mph 58% 0.000 in 0.00 W/m2
06:09 47.0 °F 33.0 °F 30.4 in NNW 8 mph 8 mph 58% 0.000 in 0.00 W/m2
06:14 47.0 °F 33.0 °F 30.4 in NNW 6 mph 9 mph 57% 0.000 in 0.00 W/m2
06:19 47.0 °F 33.0 °F 30.4 in NNW 8 mph 10 mph 57% 0.000 in 0.00 W/m2
06:24 47.0 °F 33.0 °F 30.4 in North 9 mph 13 mph 57% 0.000 in 0.00 W/m2
06:29 47.0 °F 32.0 °F 30.4 in NNW 10 mph 11 mph 56% 0.000 in 0.00 W/m2
06:34 47.0 °F 32.0 °F 30.4 in North 14 mph 15 mph 56% 0.000 in 0.00 W/m2
06:39 47.0 °F 32.0 °F 30.4 in NNW 12 mph 15 mph 55% 0.000 in 0.00 W/m2
06:44 47.0 °F 32.0 °F 30.4 in North 15 mph 15 mph 55% 0.000 in 0.00 W/m2
06:49 47.0 °F 32.0 °F 30.4 in North 13 mph 15 mph 55% 0.000 in 0.00 W/m2
06:54 47.0 °F 31.0 °F 30.4 in NNW 11 mph 11 mph 54% 0.000 in 0.00 W/m2
06:59 47.0 °F 31.0 °F 30.4 in North 16 mph 17 mph 54% 0.000 in 0.00 W/m2
07:04 47.0 °F 31.0 °F 30.5 in North 11 mph 17 mph 53% 0.000 in 0.00 W/m2
07:09 47.0 °F 31.0 °F 30.5 in NNW 11 mph 11 mph 53% 0.000 in 0.00 W/m2
07:14 47.0 °F 31.0 °F 30.5 in NNW 12 mph 13 mph 53% 0.000 in 0.00 W/m2
07:19 47.0 °F 31.0 °F 30.5 in North 14 mph 14 mph 53% 0.000 in 0.00 W/m2
07:24 47.0 °F 31.0 °F 30.5 in North 12 mph 14 mph 54% 0.000 in 7.00 W/m2
07:29 47.0 °F 31.0 °F 30.5 in NNW 14 mph 14 mph 54% 0.000 in 7.00 W/m2
07:34 47.0 °F 31.0 °F 30.5 in NNW 13 mph 17 mph 55% 0.000 in 14.00 W/m2
07:39 47.0 °F 31.0 °F 30.5 in NNW 11 mph 17 mph 55% 0.000 in 12.00 W/m2
07:44 47.0 °F 32.0 °F 30.5 in NNW 10 mph 10 mph 56% 0.000 in 14.00 W/m2
07:49 46.0 °F 32.0 °F 30.5 in NNW 13 mph 16 mph 57% 0.000 in 19.00 W/m2
07:54 46.0 °F 32.0 °F 30.5 in North 11 mph 16 mph 58% 0.000 in 23.00 W/m2
07:59 46.0 °F 33.0 °F 30.5 in North 12 mph 12 mph 59% 0.000 in 26.00 W/m2
08:04 46.0 °F 33.0 °F 30.5 in NNW 15 mph 15 mph 59% 0.000 in 58.00 W/m2
08:09 46.0 °F 33.0 °F 30.5 in North 13 mph 15 mph 60% 0.000 in 98.00 W/m2
08:14 46.0 °F 33.0 °F 30.5 in North 16 mph 17 mph 60% 0.000 in 100.00 W/m2
08:19 46.0 °F 33.0 °F 30.5 in North 11 mph 17 mph 60% 0.000 in 88.00 W/m2
08:24 46.0 °F 33.0 °F 30.5 in North 11 mph 11 mph 60% 0.000 in 70.00 W/m2
08:29 46.0 °F 33.0 °F 30.5 in North 11 mph 12 mph 60% 0.000 in 76.00 W/m2
08:34 46.0 °F 33.0 °F 30.5 in North 11 mph 11 mph 61% 0.000 in 98.00 W/m2
08:39 46.0 °F 33.0 °F 30.5 in NNW 12 mph 12 mph 61% 0.000 in 137.00 W/m2
08:44 46.0 °F 33.0 °F 30.5 in NNW 12 mph 12 mph 61% 0.000 in 172.00 W/m2
08:49 46.0 °F 33.0 °F 30.5 in NNW 12 mph 13 mph 61% 0.000 in 172.00 W/m2
08:54 46.0 °F 33.0 °F 30.5 in North 15 mph 15 mph 61% 0.000 in 134.00 W/m2
08:59 47.0 °F 34.0 °F 30.5 in North 15 mph 16 mph 61% 0.000 in 192.00 W/m2
09:04 47.0 °F 34.0 °F 30.5 in NNW 13 mph 16 mph 61% 0.000 in 211.00 W/m2
09:09 47.0 °F 34.0 °F 30.5 in NNW 14 mph 15 mph 60% 0.000 in 274.00 W/m2
09:14 47.0 °F 34.0 °F 30.5 in North 12 mph 15 mph 60% 0.000 in 295.00 W/m2
09:19 47.0 °F 34.0 °F 30.5 in NNW 16 mph 17 mph 60% 0.000 in 346.00 W/m2
09:24 47.0 °F 34.0 °F 30.5 in North 15 mph 15 mph 60% 0.000 in 376.00 W/m2
09:29 48.0 °F 35.0 °F 30.5 in North 12 mph 16 mph 60% 0.000 in 381.00 W/m2
09:34 48.0 °F 35.0 °F 30.5 in North 20 mph 20 mph 60% 0.000 in 406.00 W/m2
09:39 48.0 °F 34.0 °F 30.5 in North 19 mph 20 mph 58% 0.000 in 441.00 W/m2
09:44 48.0 °F 34.0 °F 30.5 in North 15 mph 15 mph 58% 0.000 in 446.00 W/m2
09:49 49.0 °F 35.0 °F 30.5 in NNW 13 mph 15 mph 58% 0.000 in 445.00 W/m2
09:54 49.0 °F 35.0 °F 30.5 in North 19 mph 19 mph 58% 0.000 in 471.00 W/m2
09:59 49.0 °F 35.0 °F 30.5 in NNE 15 mph 15 mph 58% 0.000 in 480.00 W/m2
10:04 49.0 °F 34.0 °F 30.5 in North 15 mph 16 mph 57% 0.000 in 504.00 W/m2
10:09 49.0 °F 35.0 °F 30.5 in NNE 14 mph 16 mph 58% 0.000 in 512.00 W/m2
10:14 50.0 °F 35.0 °F 30.5 in North 13 mph 13 mph 58% 0.000 in 527.00 W/m2
10:19 50.0 °F 35.0 °F 30.5 in North 12 mph 12 mph 58% 0.000 in 536.00 W/m2
10:24 50.0 °F 36.0 °F 30.5 in North 14 mph 14 mph 57% 0.000 in 519.00 W/m2
10:29 51.0 °F 35.0 °F 30.5 in North 13 mph 14 mph 56% 0.000 in 519.00 W/m2
10:34 51.0 °F 35.0 °F 30.5 in North 10 mph 12 mph 56% 0.000 in 578.00 W/m2
10:39 51.0 °F 35.0 °F 30.5 in NNE 15 mph 16 mph 55% 0.000 in 587.00 W/m2
10:44 51.0 °F 35.0 °F 30.5 in NNE 14 mph 15 mph 55% 0.000 in 603.00 W/m2
10:49 51.0 °F 35.0 °F 30.5 in NNE 18 mph 18 mph 55% 0.000 in 612.00 W/m2
10:54 51.0 °F 35.0 °F 30.5 in North 17 mph 18 mph 54% 0.000 in 624.00 W/m2
10:59 52.0 °F 35.0 °F 30.5 in North 14 mph 17 mph 53% 0.000 in 631.00 W/m2
11:04 52.0 °F 35.0 °F 30.5 in North 12 mph 14 mph 53% 0.000 in 638.00 W/m2
11:09 52.0 °F 36.0 °F 30.5 in North 13 mph 16 mph 53% 0.000 in 652.00 W/m2
11:14 53.0 °F 35.0 °F 30.5 in North 17 mph 17 mph 52% 0.000 in 659.00 W/m2
11:19 53.0 °F 35.0 °F 30.5 in North 12 mph 13 mph 51% 0.000 in 666.00 W/m2
11:24 53.0 °F 35.0 °F 30.5 in NNE 19 mph 19 mph 51% 0.000 in 671.00 W/m2
11:29 53.0 °F 35.0 °F 30.5 in North 18 mph 19 mph 50% 0.000 in 677.00 W/m2
11:34 53.0 °F 35.0 °F 30.5 in North 13 mph 19 mph 50% 0.000 in 675.00 W/m2
11:39 54.0 °F 35.0 °F 30.5 in North 15 mph 15 mph 49% 0.000 in 689.00 W/m2
11:44 54.0 °F 35.0 °F 30.5 in North 14 mph 14 mph 49% 0.000 in 694.00 W/m2
11:49 54.0 °F 35.0 °F 30.5 in NNW 18 mph 18 mph 48% 0.000 in 705.00 W/m2
11:54 55.0 °F 34.0 °F 30.5 in North 14 mph 19 mph 46% 0.000 in 707.00 W/m2
11:59 55.0 °F 35.0 °F 30.5 in North 15 mph 19 mph 47% 0.000 in 705.00 W/m2
12:04 55.0 °F 35.0 °F 30.5 in NNE 15 mph 15 mph 47% 0.000 in 666.00 W/m2
12:09 56.0 °F 35.0 °F 30.5 in North 17 mph 20 mph 46% 0.000 in 717.00 W/m2
12:14 56.0 °F 35.0 °F 30.5 in North 15 mph 20 mph 45% 0.000 in 722.00 W/m2
12:19 56.0 °F 33.0 °F 30.5 in NNW 18 mph 20 mph 43% 0.000 in 724.00 W/m2
12:24 56.0 °F 34.0 °F 30.5 in North 19 mph 19 mph 43% 0.000 in 728.00 W/m2
12:29 56.0 °F 33.0 °F 30.5 in North 19 mph 19 mph 42% 0.000 in 728.00 W/m2
12:34 56.0 °F 33.0 °F 30.5 in North 13 mph 19 mph 41% 0.000 in 728.00 W/m2
12:39 56.0 °F 33.0 °F 30.5 in NNW 19 mph 19 mph 41% 0.000 in 724.00 W/m2
12:44 56.0 °F 33.0 °F 30.5 in North 21 mph 21 mph 41% 0.000 in 728.00 W/m2
12:49 56.0 °F 33.0 °F 30.5 in North 16 mph 18 mph 41% 0.000 in 728.00 W/m2
12:54 57.0 °F 33.0 °F 30.5 in North 15 mph 19 mph 41% 0.000 in 717.00 W/m2
12:59 57.0 °F 32.0 °F 30.5 in NNE 16 mph 21 mph 40% 0.000 in 719.00 W/m2
13:04 57.0 °F 32.0 °F 30.5 in NNE 17 mph 21 mph 40% 0.000 in 721.00 W/m2
13:09 57.0 °F 33.0 °F 30.5 in North 13 mph 17 mph 40% 0.000 in 721.00 W/m2
13:14 57.0 °F 33.0 °F 30.5 in North 14 mph 16 mph 40% 0.000 in 701.00 W/m2
13:19 57.0 °F 33.0 °F 30.5 in North 21 mph 21 mph 40% 0.000 in 712.00 W/m2
13:24 57.0 °F 32.0 °F 30.5 in North 18 mph 21 mph 38% 0.000 in 710.00 W/m2
13:29 57.0 °F 32.0 °F 30.5 in North 18 mph 19 mph 38% 0.000 in 694.00 W/m2
13:34 57.0 °F 32.0 °F 30.5 in North 18 mph 20 mph 39% 0.000 in 691.00 W/m2
13:39 57.0 °F 32.0 °F 30.4 in North 16 mph 19 mph 39% 0.000 in 698.00 W/m2
13:44 57.0 °F 33.0 °F 30.5 in NNW 14 mph 17 mph 39% 0.000 in 687.00 W/m2
13:49 57.0 °F 32.0 °F 30.4 in NW 15 mph 17 mph 39% 0.000 in 686.00 W/m2
13:54 58.0 °F 33.0 °F 30.4 in NW 11 mph 12 mph 39% 0.000 in 675.00 W/m2
13:59 58.0 °F 32.0 °F 30.4 in NW 14 mph 15 mph 38% 0.000 in 673.00 W/m2
14:04 58.0 °F 32.0 °F 30.4 in NW 13 mph 16 mph 37% 0.000 in 670.00 W/m2
14:09 58.0 °F 31.0 °F 30.4 in NNW 17 mph 17 mph 36% 0.000 in 661.00 W/m2
14:14 58.0 °F 31.0 °F 30.4 in NNW 20 mph 20 mph 36% 0.000 in 652.00 W/m2
14:19 58.0 °F 32.0 °F 30.4 in NNW 13 mph 16 mph 37% 0.000 in 642.00 W/m2
14:24 58.0 °F 32.0 °F 30.4 in NNW 13 mph 16 mph 37% 0.000 in 635.00 W/m2
14:29 58.0 °F 32.0 °F 30.4 in NNW 12 mph 15 mph 38% 0.000 in 628.00 W/m2
14:34 58.0 °F 32.0 °F 30.4 in NW 17 mph 20 mph 38% 0.000 in 615.00 W/m2
14:39 58.0 °F 32.0 °F 30.4 in NNW 13 mph 13 mph 38% 0.000 in 605.00 W/m2
14:49 58.0 °F 31.0 °F 30.4 in NNW 18 mph 18 mph 36% 0.000 in 585.00 W/m2
14:54 58.0 °F 32.0 °F 30.4 in NW 14 mph 15 mph 36% 0.000 in 571.00 W/m2
14:59 58.0 °F 31.0 °F 30.4 in NW 14 mph 14 mph 36% 0.000 in 561.00 W/m2
15:04 58.0 °F 31.0 °F 30.4 in NNW 21 mph 21 mph 36% 0.000 in 548.00 W/m2
15:09 58.0 °F 31.0 °F 30.4 in NW 17 mph 17 mph 36% 0.000 in 536.00 W/m2
15:14 58.0 °F 31.0 °F 30.4 in NNW 18 mph 20 mph 36% 0.000 in 522.00 W/m2
15:19 58.0 °F 30.0 °F 30.4 in NNW 21 mph 23 mph 35% 0.000 in 512.00 W/m2
15:24 58.0 °F 30.0 °F 30.4 in NNW 18 mph 21 mph 35% 0.000 in 497.00 W/m2
15:29 58.0 °F 30.0 °F 30.4 in NNW 20 mph 20 mph 35% 0.000 in 482.00 W/m2
15:34 58.0 °F 30.0 °F 30.4 in NNW 18 mph 20 mph 34% 0.000 in 473.00 W/m2
15:39 58.0 °F 30.0 °F 30.4 in NNW 19 mph 19 mph 34% 0.000 in 455.00 W/m2
15:44 58.0 °F 30.0 °F 30.4 in North 16 mph 21 mph 34% 0.000 in 439.00 W/m2
15:49 58.0 °F 30.0 °F 30.4 in NNW 17 mph 18 mph 34% 0.000 in 422.00 W/m2
15:54 58.0 °F 30.0 °F 30.4 in NNW 17 mph 19 mph 34% 0.000 in 408.00 W/m2
15:59 58.0 °F 30.0 °F 30.4 in NNW 11 mph 17 mph 34% 0.000 in 392.00 W/m2
16:04 58.0 °F 30.0 °F 30.4 in North 14 mph 14 mph 35% 0.000 in 374.00 W/m2
16:09 58.0 °F 30.0 °F 30.4 in NNW 15 mph 16 mph 34% 0.000 in 357.00 W/m2
16:14 58.0 °F 30.0 °F 30.4 in NNW 14 mph 15 mph 34% 0.000 in 343.00 W/m2
16:19 58.0 °F 30.0 °F 30.4 in North 12 mph 15 mph 34% 0.000 in 325.00 W/m2
16:24 58.0 °F 30.0 °F 30.4 in North 16 mph 18 mph 34% 0.000 in 308.00 W/m2
16:29 58.0 °F 30.0 °F 30.4 in NNW 10 mph 13 mph 35% 0.000 in 292.00 W/m2
16:34 58.0 °F 30.0 °F 30.4 in NNW 14 mph 15 mph 35% 0.000 in 243.00 W/m2
16:39 57.0 °F 30.0 °F 30.4 in North 14 mph 15 mph 35% 0.000 in 123.00 W/m2
16:44 57.0 °F 31.0 °F 30.4 in NNW 12 mph 14 mph 36% 0.000 in 58.00 W/m2
16:49 57.0 °F 31.0 °F 30.4 in NNW 13 mph 13 mph 36% 0.000 in 47.00 W/m2
16:54 57.0 °F 31.0 °F 30.4 in NNW 11 mph 13 mph 36% 0.000 in 58.00 W/m2
16:59 57.0 °F 30.0 °F 30.4 in NNW 12 mph 12 mph 36% 0.000 in 33.00 W/m2
17:04 57.0 °F 30.0 °F 30.4 in NNW 12 mph 12 mph 35% 0.000 in 93.00 W/m2
17:09 57.0 °F 29.0 °F 30.4 in NNW 16 mph 16 mph 35% 0.000 in 107.00 W/m2
17:14 57.0 °F 28.0 °F 30.4 in NNW 16 mph 16 mph 34% 0.000 in 58.00 W/m2
17:19 56.0 °F 29.0 °F 30.4 in NNW 17 mph 20 mph 35% 0.000 in 56.00 W/m2
17:24 56.0 °F 29.0 °F 30.4 in NNW 16 mph 20 mph 35% 0.000 in 37.00 W/m2
17:29 56.0 °F 29.0 °F 30.4 in NNW 14 mph 17 mph 35% 0.000 in 28.00 W/m2
17:34 56.0 °F 29.0 °F 30.4 in NNW 9 mph 10 mph 36% 0.000 in 16.00 W/m2
17:39 55.0 °F 29.0 °F 30.4 in NNW 10 mph 12 mph 36% 0.000 in 12.00 W/m2
17:44 55.0 °F 29.0 °F 30.4 in NNW 11 mph 12 mph 37% 0.000 in 11.00 W/m2
17:49 55.0 °F 29.0 °F 30.4 in NNW 11 mph 11 mph 37% 0.000 in 9.00 W/m2
17:54 55.0 °F 30.0 °F 30.4 in NNW 11 mph 12 mph 38% 0.000 in 5.00 W/m2
17:59 54.0 °F 29.0 °F 30.4 in NNW 12 mph 12 mph 38% 0.000 in 0.00 W/m2
18:04 54.0 °F 29.0 °F 30.5 in NNW 7 mph 10 mph 38% 0.000 in 0.00 W/m2
18:09 54.0 °F 29.0 °F 30.5 in NNW 6 mph 9 mph 38% 0.000 in 0.00 W/m2
18:14 54.0 °F 30.0 °F 30.5 in NNW 6 mph 9 mph 39% 0.000 in 0.00 W/m2
18:19 53.0 °F 29.0 °F 30.5 in NW 4 mph 4 mph 39% 0.000 in 0.00 W/m2
18:24 53.0 °F 29.0 °F 30.5 in NW 3 mph 3 mph 39% 0.000 in 0.00 W/m2
18:29 53.0 °F 29.0 °F 30.5 in NW 3 mph 3 mph 40% 0.000 in 0.00 W/m2
18:34 53.0 °F 29.0 °F 30.5 in NW 3 mph 3 mph 40% 0.000 in 0.00 W/m2
18:39 53.0 °F 30.0 °F 30.5 in NW 4 mph 4 mph 41% 0.000 in 0.00 W/m2
18:44 52.0 °F 29.0 °F 30.5 in NW 3 mph 3 mph 41% 0.000 in 0.00 W/m2
18:49 52.0 °F 30.0 °F 30.5 in NW 5 mph 5 mph 42% 0.000 in 0.00 W/m2
18:54 52.0 °F 30.0 °F 30.5 in NW 3 mph 4 mph 42% 0.000 in 0.00 W/m2
18:59 52.0 °F 29.0 °F 30.5 in NW 3 mph 4 mph 42% 0.000 in 0.00 W/m2
19:04 51.0 °F 30.0 °F 30.5 in NW 3 mph 4 mph 43% 0.000 in 0.00 W/m2
19:09 51.0 °F 30.0 °F 30.5 in NW 2 mph 3 mph 43% 0.000 in 0.00 W/m2
19:14 51.0 °F 29.0 °F 30.5 in NW 4 mph 4 mph 43% 0.000 in 0.00 W/m2
19:19 51.0 °F 30.0 °F 30.5 in NW 4 mph 4 mph 44% 0.000 in 0.00 W/m2
19:24 51.0 °F 30.0 °F 30.5 in NW 4 mph 4 mph 44% 0.000 in 0.00 W/m2
19:29 51.0 °F 30.0 °F 30.5 in NW 4 mph 4 mph 44% 0.000 in 0.00 W/m2
19:34 50.0 °F 30.0 °F 30.5 in NW 3 mph 4 mph 45% 0.000 in 0.00 W/m2
19:39 50.0 °F 30.0 °F 30.5 in NW 3 mph 3 mph 45% 0.000 in 0.00 W/m2
19:44 50.0 °F 30.0 °F 30.5 in NW 3 mph 4 mph 45% 0.000 in 0.00 W/m2
19:49 50.0 °F 29.0 °F 30.5 in NW 2 mph 3 mph 45% 0.000 in 0.00 W/m2
19:54 50.0 °F 30.0 °F 30.5 in NW 2 mph 3 mph 46% 0.000 in 0.00 W/m2
19:59 50.0 °F 30.0 °F 30.5 in NW 2 mph 2 mph 46% 0.000 in 0.00 W/m2
20:04 49.0 °F 29.0 °F 30.5 in NW 2 mph 2 mph 46% 0.000 in 0.00 W/m2
20:09 49.0 °F 30.0 °F 30.5 in Calm   1 mph 47% 0.000 in 0.00 W/m2
20:14 49.0 °F 29.0 °F 30.5 in NW 1 mph 1 mph 48% 0.000 in 0.00 W/m2
20:19 48.0 °F 30.0 °F 30.5 in NW 1 mph 2 mph 49% 0.000 in 0.00 W/m2
20:24 48.0 °F 30.0 °F 30.5 in NW 1 mph 2 mph 49% 0.000 in 0.00 W/m2
20:29 47.0 °F 30.0 °F 30.5 in NW 2 mph 2 mph 51% 0.000 in 0.00 W/m2
20:34 47.0 °F 30.0 °F 30.5 in NW 1 mph 2 mph 51% 0.000 in 0.00 W/m2
20:39 46.0 °F 29.0 °F 30.5 in Calm   1 mph 51% 0.000 in 0.00 W/m2
20:44 46.0 °F 29.0 °F 30.5 in Calm     52% 0.000 in 0.00 W/m2
20:49 46.0 °F 29.0 °F 30.5 in Calm     52% 0.000 in 0.00 W/m2
20:54 46.0 °F 30.0 °F 30.5 in NW 1 mph 1 mph 53% 0.000 in 0.00 W/m2
20:59 45.0 °F 29.0 °F 30.5 in NW 1 mph 1 mph 53% 0.000 in 0.00 W/m2
21:04 45.0 °F 29.0 °F 30.5 in Calm   1 mph 53% 0.000 in 0.00 W/m2
21:09 45.0 °F 29.0 °F 30.5 in Calm   1 mph 54% 0.000 in 0.00 W/m2
21:14 44.0 °F 29.0 °F 30.5 in NW 1 mph 2 mph 55% 0.000 in 0.00 W/m2
21:19 44.0 °F 29.0 °F 30.5 in NW 1 mph 2 mph 56% 0.000 in 0.00 W/m2
21:24 44.0 °F 30.0 °F 30.5 in Calm   1 mph 57% 0.000 in 0.00 W/m2
21:29 44.0 °F 29.0 °F 30.5 in NW 1 mph 1 mph 57% 0.000 in 0.00 W/m2
21:34 44.0 °F 29.0 °F 30.5 in NW 1 mph 1 mph 57% 0.000 in 0.00 W/m2
21:39 43.0 °F 29.0 °F 30.5 in NW 1 mph 2 mph 58% 0.000 in 0.00 W/m2
21:44 43.0 °F 30.0 °F 30.5 in NW 1 mph 2 mph 59% 0.000 in 0.00 W/m2
21:49 43.0 °F 30.0 °F 30.5 in NW 1 mph 2 mph 59% 0.000 in 0.00 W/m2
21:54 43.0 °F 29.0 °F 30.5 in NW 1 mph 2 mph 59% 0.000 in 0.00 W/m2
21:59 42.0 °F 29.0 °F 30.5 in NW 1 mph 1 mph 59% 0.000 in 0.00 W/m2
22:04 42.0 °F 29.0 °F 30.5 in NW 2 mph 3 mph 60% 0.000 in 0.00 W/m2
22:09 42.0 °F 29.0 °F 30.5 in NW 1 mph 1 mph 60% 0.000 in 0.00 W/m2
22:14 42.0 °F 29.0 °F 30.5 in NW 1 mph 2 mph 60% 0.000 in 0.00 W/m2
22:19 42.0 °F 29.0 °F 30.5 in NW 1 mph 2 mph 60% 0.000 in 0.00 W/m2
22:24 42.0 °F 29.0 °F 30.5 in NW 1 mph 1 mph 60% 0.000 in 0.00 W/m2
22:29 41.0 °F 29.0 °F 30.5 in NW 1 mph 2 mph 61% 0.000 in 0.00 W/m2
22:34 41.0 °F 29.0 °F 30.5 in Calm   1 mph 61% 0.000 in 0.00 W/m2
22:39 41.0 °F 29.0 °F 30.5 in Calm     62% 0.000 in 0.00 W/m2
22:44 41.0 °F 29.0 °F 30.5 in Calm     62% 0.000 in 0.00 W/m2
22:49 41.0 °F 29.0 °F 30.5 in NW 1 mph 1 mph 63% 0.000 in 0.00 W/m2
22:54 41.0 °F 29.0 °F 30.5 in NW 1 mph 1 mph 64% 0.000 in 0.00 W/m2
22:59 41.0 °F 29.0 °F 30.5 in NW 1 mph 1 mph 64% 0.000 in 0.00 W/m2
23:04 40.0 °F 29.0 °F 30.5 in NW 1 mph 1 mph 64% 0.000 in 0.00 W/m2
23:09 40.0 °F 30.0 °F 30.5 in Calm     65% 0.000 in 0.00 W/m2
23:14 40.0 °F 29.0 °F 30.5 in NW 1 mph 1 mph 65% 0.000 in 0.00 W/m2
23:19 40.0 °F 30.0 °F 30.5 in NW 1 mph 1 mph 66% 0.000 in 0.00 W/m2
23:24 40.0 °F 29.0 °F 30.5 in Calm   1 mph 66% 0.000 in 0.00 W/m2
23:29 40.0 °F 29.0 °F 30.5 in Calm     66% 0.000 in 0.00 W/m2
23:34 40.0 °F 29.0 °F 30.5 in Calm     66% 0.000 in 0.00 W/m2
23:39 39.0 °F 29.0 °F 30.5 in NW 1 mph 1 mph 67% 0.000 in 0.00 W/m2
23:44 39.0 °F 29.0 °F 30.5 in NW 1 mph 1 mph 67% 0.000 in 0.00 W/m2
23:49 39.0 °F 29.0 °F 30.5 in NW 2 mph 2 mph 67% 0.000 in 0.00 W/m2
23:54 39.0 °F 29.0 °F 30.5 in NW 1 mph 2 mph 68% 0.000 in 0.00 W/m2
23:59 39.0 °F 29.0 °F 30.5 in NW 1 mph 1 mph 68% 0.000 in 0.00 W/m2
Villages of Bridgestone, Spring, TX USA
Compliments of Weather Underground - 4 mb